createdAt,value
2016-05-24T00:00:22.138Z,99.99
2016-05-24T00:01:17.547Z,99.99
2016-05-24T00:02:15.910Z,99.99
2016-05-24T00:03:15.943Z,99.99
2016-05-24T00:04:15.977Z,99.99
2016-05-24T00:05:15.979Z,99.99
2016-05-24T00:06:15.998Z,99.99
2016-05-24T00:07:16.000Z,99.99
2016-05-24T00:08:41.831Z,99.99
2016-05-24T00:09:16.053Z,99.99
2016-05-24T00:10:16.181Z,99.99
2016-05-24T00:11:28.824Z,99.99
2016-05-24T00:12:16.170Z,99.99
2016-05-24T00:13:16.126Z,99.99
2016-05-24T00:14:16.144Z,99.99
2016-05-24T00:15:28.897Z,99.99
2016-05-24T00:16:16.181Z,99.99
2016-05-24T00:17:16.216Z,99.99
2016-05-24T00:18:16.233Z,99.99
2016-05-24T00:19:16.236Z,99.99
2016-05-24T00:20:17.692Z,99.99
2016-05-24T00:21:16.133Z,99.99
2016-05-24T00:22:16.322Z,99.99
2016-05-24T00:23:16.372Z,99.99
2016-05-24T00:24:16.327Z,99.99
2016-05-24T00:25:16.377Z,99.99
2016-05-24T00:26:17.785Z,99.99
2016-05-24T00:27:16.414Z,99.99
2016-05-24T00:28:19.448Z,99.99
2016-05-24T00:29:16.716Z,99.99
2016-05-24T00:30:42.140Z,99.99
2016-05-24T00:31:26.160Z,99.99
2016-05-24T00:32:26.177Z,99.99
2016-05-24T00:33:26.196Z,99.99
2016-05-24T00:34:26.214Z,99.99
2016-05-24T00:35:26.076Z,99.99
2016-05-24T00:36:26.266Z,99.99
2016-05-24T00:37:26.269Z,99.99
2016-05-24T00:38:45.506Z,99.99
2016-05-24T00:39:38.884Z,99.99
2016-05-24T00:40:26.387Z,99.99
2016-05-24T00:41:26.342Z,99.99
2016-05-24T00:42:39.095Z,99.99
2016-05-24T00:43:45.441Z,99.99
2016-05-24T00:44:26.428Z,99.99
2016-05-24T00:45:52.103Z,99.99
2016-05-24T00:46:26.450Z,99.99
2016-05-24T00:47:26.467Z,99.99
2016-05-24T00:48:26.486Z,99.99
2016-05-24T00:49:26.520Z,99.99
2016-05-24T00:50:26.539Z,99.99
2016-05-24T00:51:26.541Z,99.99
2016-05-24T00:52:26.560Z,99.99
2016-05-24T00:53:26.593Z,99.99
2016-05-24T00:54:26.596Z,99.99
2016-05-24T00:55:26.630Z,99.99
2016-05-24T00:56:26.492Z,99.99
2016-05-24T00:57:26.666Z,99.99
2016-05-24T00:58:26.701Z,99.99
2016-05-24T00:59:27.015Z,99.99
2016-05-24T01:00:26.748Z,99.99
2016-05-24T01:01:26.794Z,99.99
2016-05-24T01:02:26.669Z,99.99
2016-05-24T01:03:26.889Z,99.99
2016-05-24T01:04:28.356Z,99.99
2016-05-24T01:05:26.990Z,99.99
2016-05-24T01:06:27.065Z,99.99
2016-05-24T01:07:27.030Z,99.99
2016-05-24T01:08:27.060Z,99.99
2016-05-24T01:09:39.823Z,99.99
2016-05-24T01:10:39.848Z,99.99
2016-05-24T01:11:27.136Z,99.99
2016-05-24T01:12:27.174Z,99.99
2016-05-24T01:13:39.899Z,99.99
2016-05-24T01:14:30.281Z,99.99
2016-05-24T01:15:27.334Z,99.99
2016-05-24T01:16:27.258Z,99.99
2016-05-24T01:17:27.278Z,99.99
2016-05-24T01:18:27.298Z,99.99
2016-05-24T01:19:27.316Z,99.99
2016-05-24T01:20:30.211Z,99.99
2016-05-24T01:21:27.356Z,99.99
2016-05-24T01:22:27.373Z,99.99
2016-05-24T01:23:27.237Z,99.99
2016-05-24T01:24:27.426Z,99.99
2016-05-24T01:25:27.446Z,99.99
2016-05-24T01:26:27.448Z,99.99
2016-05-24T01:27:27.483Z,99.99
2016-05-24T01:28:27.532Z,99.99
2016-05-24T01:29:27.958Z,99.99
2016-05-24T01:30:27.538Z,99.99
2016-05-24T01:31:27.573Z,99.99
2016-05-24T01:32:27.576Z,99.99
2016-05-24T01:33:27.594Z,99.99
2016-05-24T01:34:27.627Z,99.99
2016-05-24T01:35:27.630Z,99.99
2016-05-24T01:36:27.663Z,99.99
2016-05-24T01:37:27.683Z,99.99
2016-05-24T01:38:27.530Z,99.99
2016-05-24T01:39:27.719Z,99.99
2016-05-24T01:40:29.191Z,99.99
2016-05-24T01:41:27.755Z,99.99
2016-05-24T01:42:27.774Z,99.99
2016-05-24T01:43:40.526Z,99.99
2016-05-24T01:44:27.827Z,99.99
2016-05-24T01:45:27.829Z,99.99
2016-05-24T01:46:27.847Z,99.99
2016-05-24T01:47:27.865Z,99.99
2016-05-24T01:48:27.884Z,99.99
2016-05-24T01:49:27.918Z,99.99
2016-05-24T01:50:47.140Z,99.99
2016-05-24T01:51:27.939Z,99.99
2016-05-24T01:52:27.973Z,99.99
2016-05-24T01:53:27.990Z,99.99
2016-05-24T01:54:28.103Z,99.99
2016-05-24T01:55:28.028Z,99.99
2016-05-24T01:56:28.062Z,99.99
2016-05-24T01:57:27.892Z,99.99
2016-05-24T01:58:40.817Z,99.99
2016-05-24T01:59:28.101Z,99.99
2016-05-24T02:00:28.120Z,99.99
2016-05-24T02:01:28.137Z,99.99
2016-05-24T02:02:31.187Z,99.99
2016-05-24T02:03:28.189Z,99.99
2016-05-24T02:04:34.317Z,99.99
2016-05-24T02:05:28.304Z,99.99
2016-05-24T02:06:28.245Z,99.99
2016-05-24T02:07:28.295Z,99.99
2016-05-24T02:08:28.266Z,99.99
2016-05-24T02:09:28.299Z,99.99
2016-05-24T02:10:28.318Z,99.99
2016-05-24T02:11:28.336Z,99.99
2016-05-24T02:12:28.339Z,99.99
2016-05-24T02:13:28.374Z,99.99
2016-05-24T02:14:28.391Z,99.99
2016-05-24T02:15:41.160Z,99.99
2016-05-24T02:16:28.427Z,99.99
2016-05-24T02:17:28.446Z,99.99
2016-05-24T02:18:28.465Z,99.99
2016-05-24T02:19:28.498Z,99.99
2016-05-24T02:20:28.393Z,99.99
2016-05-24T02:21:28.520Z,99.99
2016-05-24T02:22:28.381Z,99.99
2016-05-24T02:23:28.556Z,99.99
2016-05-24T02:24:28.590Z,99.99
2016-05-24T02:25:28.437Z,99.99
2016-05-24T02:26:28.626Z,99.99
2016-05-24T02:27:28.645Z,99.99
2016-05-24T02:28:28.664Z,99.99
2016-05-24T02:29:30.635Z,99.99
2016-05-24T02:30:28.715Z,99.99
2016-05-24T02:31:28.718Z,99.99
2016-05-24T02:32:28.736Z,99.99
2016-05-24T02:33:41.505Z,99.99
2016-05-24T02:34:28.632Z,99.99
2016-05-24T02:35:28.792Z,99.99
2016-05-24T02:36:30.091Z,99.99
2016-05-24T02:37:28.844Z,99.99
2016-05-24T02:38:28.846Z,99.99
2016-05-24T02:39:28.880Z,99.99
2016-05-24T02:40:28.899Z,99.99
2016-05-24T02:41:28.917Z,99.99
2016-05-24T02:42:41.686Z,99.99
2016-05-24T02:43:28.938Z,99.99
2016-05-24T02:44:48.127Z,99.99
2016-05-24T02:45:29.130Z,99.99
2016-05-24T02:46:29.196Z,99.99
2016-05-24T02:47:28.886Z,99.99
2016-05-24T02:48:31.061Z,99.99
2016-05-24T02:49:48.282Z,99.99
2016-05-24T02:50:29.082Z,99.99
2016-05-24T02:51:29.006Z,99.99
2016-05-24T02:52:28.978Z,99.99
2016-05-24T02:53:29.152Z,99.99
2016-05-24T02:54:29.155Z,99.99
2016-05-24T02:55:32.220Z,99.99
2016-05-24T02:56:29.239Z,99.99
2016-05-24T02:57:29.288Z,99.99
2016-05-24T02:59:00.526Z,99.99
2016-05-24T02:59:29.372Z,99.99
2016-05-24T03:00:29.281Z,99.99
2016-05-24T03:01:29.158Z,99.99
2016-05-24T03:02:29.333Z,99.99
2016-05-24T03:03:29.336Z,99.99
2016-05-24T03:04:29.339Z,99.99
2016-05-24T03:05:29.372Z,99.99
2016-05-24T03:06:29.406Z,99.99
2016-05-24T03:07:29.409Z,99.99
2016-05-24T03:08:29.427Z,99.99
2016-05-24T03:09:29.461Z,99.99
2016-05-24T03:10:29.308Z,99.99
2016-05-24T03:11:29.497Z,99.99
2016-05-24T03:12:29.344Z,99.99
2016-05-24T03:13:42.268Z,99.99
2016-05-24T03:14:29.537Z,99.99
2016-05-24T03:15:29.555Z,99.99
2016-05-24T03:16:29.574Z,99.99
2016-05-24T03:17:29.608Z,99.99
2016-05-24T03:18:29.626Z,99.99
2016-05-24T03:19:29.659Z,99.99
2016-05-24T03:20:29.662Z,99.99
2016-05-24T03:21:42.415Z,99.99
2016-05-24T03:22:29.699Z,99.99
2016-05-24T03:23:29.765Z,99.99
2016-05-24T03:24:30.985Z,99.99
2016-05-24T03:25:31.176Z,99.99
2016-05-24T03:26:29.773Z,99.99
2016-05-24T03:27:29.806Z,99.99
2016-05-24T03:28:31.262Z,99.99
2016-05-24T03:29:29.843Z,99.99
2016-05-24T03:30:29.845Z,99.99
2016-05-24T03:31:29.879Z,99.99
2016-05-24T03:32:31.320Z,99.99
2016-05-24T03:33:29.916Z,99.99
2016-05-24T03:34:29.934Z,99.99
2016-05-24T03:35:29.953Z,99.99
2016-05-24T03:36:30.002Z,99.99
2016-05-24T03:37:29.990Z,99.99
2016-05-24T03:38:31.414Z,99.99
2016-05-24T03:39:30.026Z,99.99
2016-05-24T03:40:30.044Z,99.99
2016-05-24T03:41:30.063Z,99.99
2016-05-24T03:42:42.815Z,99.99
2016-05-24T03:43:30.100Z,99.99
2016-05-24T03:44:56.118Z,99.99
2016-05-24T03:45:42.886Z,99.99
2016-05-24T03:47:01.435Z,99.99
2016-05-24T03:47:33.001Z,99.99
2016-05-24T03:48:33.003Z,99.99
2016-05-24T03:49:33.022Z,99.99
2016-05-24T03:50:33.040Z,99.99
2016-05-24T03:51:52.262Z,99.99
2016-05-24T03:52:52.310Z,99.99
2016-05-24T03:53:33.158Z,99.99
2016-05-24T03:54:33.145Z,99.99
2016-05-24T03:55:33.148Z,99.99
2016-05-24T03:57:04.446Z,99.99
2016-05-24T03:57:48.403Z,99.99
2016-05-24T03:58:48.421Z,99.99
2016-05-24T03:59:48.392Z,99.99
2016-05-24T04:00:48.442Z,99.99
2016-05-24T04:02:01.257Z,99.99
2016-05-24T04:03:01.228Z,99.99
2016-05-24T04:03:48.497Z,99.99
2016-05-24T04:05:07.734Z,99.99
2016-05-24T04:05:48.550Z,99.99
2016-05-24T04:06:48.583Z,99.99
2016-05-24T04:07:48.601Z,99.99
2016-05-24T04:09:01.338Z,99.99
2016-05-24T04:10:07.825Z,99.99
2016-05-24T04:11:14.316Z,99.99
2016-05-24T04:11:48.659Z,99.99
2016-05-24T04:12:48.693Z,99.99
2016-05-24T04:13:48.539Z,99.99
2016-05-24T04:14:48.713Z,99.99
2016-05-24T04:15:48.747Z,99.99
2016-05-24T04:16:51.783Z,99.99
2016-05-24T04:17:48.769Z,99.99
2016-05-24T04:18:48.803Z,99.99
2016-05-24T04:19:48.821Z,99.99
2016-05-24T04:21:14.514Z,99.99
2016-05-24T04:21:51.733Z,99.99
2016-05-24T04:22:48.891Z,99.99
2016-05-24T04:24:01.644Z,99.99
2016-05-24T04:24:48.913Z,99.99
2016-05-24T04:26:14.449Z,99.99
2016-05-24T04:26:48.949Z,99.99
2016-05-24T04:27:48.983Z,99.99
2016-05-24T04:29:03.955Z,99.99
2016-05-24T04:30:04.223Z,99.99
2016-05-24T04:31:23.369Z,99.99
2016-05-24T04:32:23.356Z,99.99
2016-05-24T04:33:30.437Z,99.99
2016-05-24T04:34:04.156Z,99.99
2016-05-24T04:36:05.630Z,99.99
2016-05-24T04:37:04.086Z,99.99
2016-05-24T04:38:16.997Z,99.99
2016-05-24T04:39:05.684Z,99.99
2016-05-24T04:40:35.628Z,99.99
2016-05-24T04:41:19.646Z,99.99
2016-05-24T04:42:19.680Z,99.99
2016-05-24T04:43:19.697Z,99.99
2016-05-24T04:44:19.530Z,99.99
2016-05-24T04:45:19.813Z,99.99
2016-05-24T04:46:32.472Z,99.99
2016-05-24T04:47:19.755Z,99.99
2016-05-24T04:48:19.774Z,99.99
2016-05-24T04:49:32.526Z,99.99
2016-05-24T04:50:21.124Z,99.99
2016-05-24T04:51:19.861Z,99.99
2016-05-24T04:52:19.863Z,99.99
2016-05-24T04:53:32.615Z,99.99
2016-05-24T04:54:19.899Z,99.99
2016-05-24T04:55:19.902Z,99.99
2016-05-24T04:56:32.671Z,99.99
2016-05-24T04:57:19.955Z,99.99
2016-05-24T04:58:39.192Z,99.99
2016-05-24T04:59:39.209Z,99.99
2016-05-24T05:00:51.338Z,99.99
2016-05-24T05:01:51.325Z,99.99
2016-05-24T05:02:20.062Z,99.99
2016-05-24T05:03:20.065Z,99.99
2016-05-24T05:04:39.301Z,99.99
2016-05-24T05:05:20.101Z,99.99
2016-05-24T05:06:20.134Z,99.99
2016-05-24T05:07:35.372Z,99.99
2016-05-24T05:08:35.390Z,99.99
2016-05-24T05:09:54.628Z,99.99
2016-05-24T05:10:51.177Z,99.99
2016-05-24T05:11:38.617Z,99.99
2016-05-24T05:12:38.636Z,99.99
2016-05-24T05:13:38.639Z,99.99
2016-05-24T05:14:38.672Z,99.99
2016-05-24T05:15:38.753Z,99.99
2016-05-24T05:16:38.708Z,99.99
2016-05-24T05:17:38.727Z,99.99
2016-05-24T05:18:38.589Z,99.99
2016-05-24T05:19:51.514Z,99.99
2016-05-24T05:20:38.782Z,99.99
2016-05-24T05:21:38.816Z,99.99
2016-05-24T05:22:38.819Z,99.99
2016-05-24T05:23:38.853Z,99.99
2016-05-24T05:24:38.854Z,99.99
2016-05-24T05:25:38.890Z,99.99
2016-05-24T05:26:38.908Z,99.99
2016-05-24T05:27:38.926Z,99.99
2016-05-24T05:28:58.287Z,99.99
2016-05-24T05:29:38.806Z,99.99
2016-05-24T05:31:45.265Z,99.99
2016-05-24T05:32:39.017Z,99.99
2016-05-24T05:33:39.052Z,99.99
2016-05-24T05:34:39.070Z,99.99
2016-05-24T05:35:39.103Z,99.99
2016-05-24T05:36:39.107Z,99.99
2016-05-24T05:37:39.109Z,99.99
2016-05-24T05:38:39.127Z,99.99
2016-05-24T05:39:39.161Z,99.99
2016-05-24T05:40:39.164Z,99.99
2016-05-24T05:41:39.042Z,99.99
2016-05-24T05:42:39.294Z,99.99
2016-05-24T05:43:39.234Z,99.8
2016-05-24T05:44:39.284Z,99.99
2016-05-24T05:45:39.427Z,99.99
2016-05-24T05:46:39.383Z,99.71
2016-05-24T05:47:39.307Z,99.99
2016-05-24T05:48:39.357Z,99.99
2016-05-24T05:49:39.361Z,99.99
2016-05-24T05:50:39.378Z,99.99
2016-05-24T05:51:39.397Z,99.52
2016-05-24T05:52:39.415Z,99.99
2016-05-24T05:53:39.543Z,99.99
2016-05-24T05:54:39.467Z,99.99
2016-05-24T05:55:39.485Z,99.37
2016-05-24T05:56:39.488Z,99.85
2016-05-24T05:57:39.507Z,99.95
2016-05-24T05:58:39.509Z,98.99
2016-05-24T05:59:39.543Z,98.66
2016-05-24T06:00:39.577Z,99.18
2016-05-24T06:01:39.595Z,97.18
2016-05-24T06:02:39.598Z,97.85
2016-05-24T06:03:39.631Z,96.89
2016-05-24T06:04:39.651Z,96.61
2016-05-24T06:05:39.668Z,96.51
2016-05-24T06:06:39.562Z,96.51
2016-05-24T06:07:39.705Z,96.89
2016-05-24T06:08:39.723Z,94.98
2016-05-24T06:09:39.725Z,95.17
2016-05-24T06:10:39.806Z,95.46
2016-05-24T06:11:41.607Z,94.7
2016-05-24T06:12:43.531Z,94.98
2016-05-24T06:13:39.814Z,94.51
2016-05-24T06:14:39.928Z,93.93
2016-05-24T06:15:43.195Z,94.98
2016-05-24T06:16:39.885Z,95.46
2016-05-24T06:17:39.857Z,95.27
2016-05-24T06:18:39.938Z,94.7
2016-05-24T06:19:39.941Z,96.51
2016-05-24T06:20:39.975Z,96.66
2016-05-24T06:21:40.008Z,97.61
2016-05-24T06:22:39.996Z,98.08
2016-05-24T06:23:40.076Z,98.56
2016-05-24T06:24:39.907Z,97.89
2016-05-24T06:25:40.051Z,98.56
2016-05-24T06:26:40.100Z,98.56
2016-05-24T06:27:40.102Z,98.18
2016-05-24T06:28:59.324Z,97.42
2016-05-24T06:29:41.546Z,97.51
2016-05-24T06:30:40.173Z,97.8
2016-05-24T06:31:59.410Z,97.8
2016-05-24T06:32:40.210Z,97.89
2016-05-24T06:33:40.229Z,97.22
2016-05-24T06:34:40.356Z,97.32
2016-05-24T06:35:40.156Z,97.71
2016-05-24T06:36:40.127Z,95.98
2016-05-24T06:37:40.301Z,96.17
2016-05-24T06:38:40.320Z,96.37
2016-05-24T06:39:59.573Z,95.98
2016-05-24T06:40:59.560Z,95.89
2016-05-24T06:41:40.375Z,96.08
2016-05-24T06:43:11.674Z,96.17
2016-05-24T06:43:41.833Z,96.37
2016-05-24T06:44:40.445Z,96.17
2016-05-24T06:45:46.730Z,97.32
2016-05-24T06:46:40.483Z,96.56
2016-05-24T06:47:40.563Z,95.89
2016-05-24T06:48:53.269Z,95.36
2016-05-24T06:49:53.287Z,95.03
2016-05-24T06:50:41.962Z,95.22
2016-05-24T06:52:06.261Z,96.46
2016-05-24T06:52:50.264Z,96.08
2016-05-24T06:53:50.266Z,95.7
2016-05-24T06:54:50.300Z,95.32
2016-05-24T06:55:50.335Z,95.98
2016-05-24T06:56:50.321Z,95.89
2016-05-24T06:57:50.340Z,95.89
2016-05-24T06:58:50.374Z,96.17
2016-05-24T07:00:10.455Z,95.65
2016-05-24T07:01:07.021Z,95.7
2016-05-24T07:02:07.007Z,96.03
2016-05-24T07:03:19.791Z,96.22
2016-05-24T07:04:07.074Z,95.94
2016-05-24T07:05:07.156Z,95.61
2016-05-24T07:06:06.924Z,96.17
2016-05-24T07:07:07.145Z,96.84
2016-05-24T07:08:06.976Z,97.13
2016-05-24T07:09:10.198Z,97.27
2016-05-24T07:10:07.185Z,95.84
2016-05-24T07:11:07.047Z,95.03
2016-05-24T07:12:07.346Z,95.17
2016-05-24T07:13:32.915Z,94.65
2016-05-24T07:14:07.259Z,94.98
2016-05-24T07:15:38.560Z,95.65
2016-05-24T07:16:07.403Z,94.98
2016-05-24T07:17:07.328Z,95.36
2016-05-24T07:18:07.347Z,94.89
2016-05-24T07:19:07.349Z,94.98
2016-05-24T07:20:08.789Z,95.65
2016-05-24T07:21:07.402Z,96.75
2016-05-24T07:22:07.436Z,97.13
2016-05-24T07:23:07.454Z,96.94
2016-05-24T07:24:07.566Z,96.98
2016-05-24T07:25:07.475Z,96.98
2016-05-24T07:26:07.572Z,97.18
2016-05-24T07:27:26.718Z,95.75
2016-05-24T07:28:07.546Z,96.13
2016-05-24T07:29:07.564Z,97.42
2016-05-24T07:30:07.582Z,97.22
2016-05-24T07:31:07.601Z,97.22
2016-05-24T07:32:20.368Z,97.37
2016-05-24T07:33:20.215Z,98.56
2016-05-24T07:34:07.655Z,97.8
2016-05-24T07:35:07.674Z,98.08
2016-05-24T07:36:07.723Z,97.71
2016-05-24T07:37:09.132Z,97.22
2016-05-24T07:38:07.729Z,97.61
2016-05-24T07:39:07.763Z,97.51
2016-05-24T07:40:07.796Z,96.8
2016-05-24T07:41:07.784Z,97.75
2016-05-24T07:42:07.676Z,96.8
2016-05-24T07:43:20.570Z,97.75
2016-05-24T07:44:09.261Z,97.47
2016-05-24T07:45:39.173Z,97.61
2016-05-24T07:46:23.142Z,96.94
2016-05-24T07:47:23.159Z,97.08
2016-05-24T07:48:23.192Z,96.89
2016-05-24T07:49:42.402Z,96.61
2016-05-24T07:50:23.980Z,96.98
2016-05-24T07:51:23.248Z,97.85
2016-05-24T07:52:36.003Z,97.18
2016-05-24T07:53:23.269Z,95.75
2016-05-24T07:54:38.383Z,95.65
2016-05-24T07:55:38.246Z,96.42
2016-05-24T07:56:38.421Z,96.13
2016-05-24T07:57:38.439Z,96.22
2016-05-24T07:58:51.301Z,96.22
2016-05-24T07:59:39.882Z,96.42
2016-05-24T08:00:38.368Z,95.17
2016-05-24T08:01:41.543Z,96.03
2016-05-24T08:02:38.374Z,95.46
2016-05-24T08:03:38.565Z,95.36
2016-05-24T08:04:39.989Z,96.03
2016-05-24T08:05:51.335Z,95.65
2016-05-24T08:06:38.682Z,96.03
2016-05-24T08:08:09.918Z,95.65
2016-05-24T08:08:53.890Z,95.75
2016-05-24T08:10:13.096Z,96.13
2016-05-24T08:11:06.646Z,96.22
2016-05-24T08:11:55.351Z,96.42
2016-05-24T08:13:13.229Z,96.32
2016-05-24T08:13:53.982Z,96.51
2016-05-24T08:15:25.281Z,96.98
2016-05-24T08:15:55.597Z,96.22
2016-05-24T08:16:53.865Z,96.61
2016-05-24T08:17:54.056Z,96.42
2016-05-24T08:18:53.917Z,96.42
2016-05-24T08:20:13.294Z,96.61
2016-05-24T08:21:24.594Z,96.32
2016-05-24T08:22:24.614Z,95.94
2016-05-24T08:23:18.381Z,94.89
2016-05-24T08:25:21.590Z,96.08
2016-05-24T08:26:40.157Z,95.65
2016-05-24T08:28:55.428Z,96.13
2016-05-24T08:29:55.681Z,95.08
2016-05-24T08:31:05.699Z,95.65
2016-05-24T08:32:05.327Z,95.17
2016-05-24T08:33:20.330Z,95.08
2016-05-24T08:34:20.395Z,94.41
2016-05-24T08:35:33.057Z,94.41
2016-05-24T08:36:23.369Z,94.89
2016-05-24T08:37:20.357Z,95.12
2016-05-24T08:38:46.049Z,93.98
2016-05-24T08:39:29.723Z,93.21
2016-05-24T08:40:55.601Z,94.17
2016-05-24T08:41:33.932Z,93.88
2016-05-24T08:42:33.795Z,94.46
2016-05-24T08:43:36.954Z,93.88
2016-05-24T08:44:37.096Z,92.83
2016-05-24T08:45:49.724Z,91.4
2016-05-24T08:46:37.023Z,92.02
2016-05-24T08:48:02.729Z,91.25
2016-05-24T08:48:43.341Z,91.93
2016-05-24T08:50:11.391Z,91.64
2016-05-24T08:51:01.457Z,91.25
2016-05-24T08:52:01.459Z,91.25
2016-05-24T08:53:04.524Z,90.59
2016-05-24T08:54:01.558Z,90.78
2016-05-24T08:55:01.530Z,92.5
2016-05-24T08:56:01.641Z,90.83
2016-05-24T08:57:32.850Z,91.59
2016-05-24T08:58:03.069Z,91.97
2016-05-24T08:59:01.447Z,91.88
2016-05-24T09:00:15.980Z,92.16
2016-05-24T09:01:15.436Z,92.64
2016-05-24T09:02:15.596Z,92.83
2016-05-24T09:03:15.613Z,93.12
2016-05-24T09:04:34.838Z,93.88
2016-05-24T09:05:20.557Z,94.46
2016-05-24T09:06:38.062Z,93.5
2016-05-24T09:07:50.127Z,95.46
2016-05-24T09:08:53.177Z,95.32
2016-05-24T09:09:34.132Z,96.22
2016-05-24T09:11:49.388Z,94.93
2016-05-24T09:12:49.407Z,95.32
2016-05-24T09:13:49.268Z,95.7
2016-05-24T09:14:49.427Z,95.12
2016-05-24T09:15:54.180Z,95.32
2016-05-24T09:16:49.495Z,95.98
2016-05-24T09:17:49.514Z,96.32
2016-05-24T09:19:02.266Z,96.13
2016-05-24T09:20:02.269Z,95.94
2016-05-24T09:20:52.162Z,95.84
2016-05-24T09:22:15.243Z,97.18
2016-05-24T09:22:55.698Z,96.89
2016-05-24T09:23:49.467Z,97.08
2016-05-24T09:24:49.939Z,95.65
2016-05-24T09:25:49.520Z,94.93
2016-05-24T09:26:51.100Z,95.08
2016-05-24T09:27:49.868Z,96.13
2016-05-24T09:28:49.731Z,95.84
2016-05-24T09:29:51.264Z,95.65
2016-05-24T09:30:51.080Z,94.93
2016-05-24T09:31:56.067Z,94.36
2016-05-24T09:32:49.913Z,93.98
2016-05-24T09:33:49.900Z,94.74
2016-05-24T09:34:49.919Z,95.61
2016-05-24T09:35:51.280Z,95.22
2016-05-24T09:36:51.360Z,95.32
2016-05-24T09:37:56.177Z,94.84
2016-05-24T09:38:49.945Z,96.37
2016-05-24T09:40:02.682Z,95.12
2016-05-24T09:41:02.701Z,94.07
2016-05-24T09:41:50.093Z,93.6
2016-05-24T09:42:50.034Z,94.27
2016-05-24T09:43:50.130Z,93.88
2016-05-24T09:44:50.054Z,94.46
2016-05-24T09:46:21.354Z,94.27
2016-05-24T09:47:00.153Z,94.07
2016-05-24T09:48:25.688Z,94.55
2016-05-24T09:49:32.364Z,93.98
2016-05-24T09:50:12.520Z,93.5
2016-05-24T09:51:38.355Z,93.31
2016-05-24T09:52:21.917Z,92.83
2016-05-24T09:53:15.654Z,93.12
2016-05-24T09:54:38.331Z,92.64
2016-05-24T09:55:18.784Z,93.12
2016-05-24T09:56:43.978Z,93.31
2016-05-24T09:57:41.636Z,92.26
2016-05-24T09:58:47.983Z,93.12
2016-05-24T09:59:41.908Z,92.83
2016-05-24T10:01:01.130Z,93.12
2016-05-24T10:01:51.178Z,92.69
2016-05-24T10:02:44.838Z,92.4
2016-05-24T10:03:44.872Z,92.11
2016-05-24T10:05:46.313Z,91.83
2016-05-24T10:06:44.955Z,91.93
2016-05-24T10:08:04.043Z,93.02
2016-05-24T10:08:44.864Z,93.93
2016-05-24T10:10:10.733Z,92.88
2016-05-24T10:10:45.117Z,92.5
2016-05-24T10:13:00.362Z,91.69
2016-05-24T10:14:00.326Z,92.02
2016-05-24T10:15:00.351Z,92.11
2016-05-24T10:16:00.348Z,91.74
2016-05-24T10:17:00.417Z,90.2
2016-05-24T10:18:00.455Z,91.16
2016-05-24T10:19:01.835Z,92.5
2016-05-24T10:20:13.168Z,93.26
2016-05-24T10:21:00.455Z,93.07
2016-05-24T10:22:19.521Z,93.74
2016-05-24T10:23:03.572Z,93.74
2016-05-24T10:24:03.576Z,92.97
2016-05-24T10:25:03.579Z,92.21
2016-05-24T10:26:03.865Z,91.45
2016-05-24T10:27:03.697Z,91.54
2016-05-24T10:28:29.340Z,91.16
2016-05-24T10:29:03.687Z,91.64
2016-05-24T10:30:04.190Z,90.01
2016-05-24T10:31:03.740Z,90.78
2016-05-24T10:32:23.665Z,89.73
2016-05-24T10:33:03.605Z,89.53
2016-05-24T10:34:03.795Z,89.44
2016-05-24T10:35:17.985Z,89.53
2016-05-24T10:36:16.565Z,89.1
2016-05-24T10:37:24.334Z,87.19
2016-05-24T10:38:03.868Z,86.04
2016-05-24T10:39:03.903Z,85.85
2016-05-24T10:40:19.608Z,84.46
2016-05-24T10:41:04.001Z,86.37
2016-05-24T10:42:03.942Z,86.76
2016-05-24T10:43:16.709Z,87.62
2016-05-24T10:44:35.278Z,88.29
2016-05-24T10:45:33.530Z,88.86
2016-05-24T10:46:14.092Z,88.38
2016-05-24T10:47:14.267Z,88.09
2016-05-24T10:48:14.286Z,86.76
2016-05-24T10:49:15.773Z,85.51
2016-05-24T10:50:14.853Z,85.32
2016-05-24T10:51:14.356Z,84.08
2016-05-24T10:52:14.375Z,84.17
2016-05-24T10:53:14.361Z,85.32
2016-05-24T10:54:40.101Z,86.37
2016-05-24T10:55:33.648Z,87.19
2016-05-24T10:56:45.794Z,89.2
2016-05-24T10:57:14.591Z,90.44
2016-05-24T10:58:14.516Z,91.3
2016-05-24T10:59:14.534Z,91.16
2016-05-24T11:00:14.552Z,91.35
2016-05-24T11:01:27.148Z,91.93
2016-05-24T11:02:14.605Z,91.93
2016-05-24T11:03:14.607Z,91.83
2016-05-24T11:04:14.641Z,92.21
2016-05-24T11:05:40.334Z,91.35
2016-05-24T11:06:14.850Z,90.78
2016-05-24T11:07:45.996Z,89.92
2016-05-24T11:08:29.965Z,89.92
2016-05-24T11:09:30.014Z,90.49
2016-05-24T11:10:30.017Z,90.88
2016-05-24T11:11:42.787Z,91.16
2016-05-24T11:12:33.131Z,91.16
2016-05-24T11:13:55.824Z,90.01
2016-05-24T11:14:41.234Z,89.92
2016-05-24T11:16:06.048Z,88.81
2016-05-24T11:16:50.504Z,87.38
2016-05-24T11:17:50.351Z,87.19
2016-05-24T11:18:51.916Z,88.38
2016-05-24T11:19:50.606Z,88.72
2016-05-24T11:20:53.578Z,88.34
2016-05-24T11:22:09.752Z,88.15
2016-05-24T11:22:50.567Z,88.62
2016-05-24T11:24:21.930Z,88.05
2016-05-24T11:25:05.885Z,88.05
2016-05-24T11:26:05.919Z,88.34
2016-05-24T11:28:21.174Z,88.05
2016-05-24T11:29:21.193Z,87.29
2016-05-24T11:30:22.758Z,87.62
2016-05-24T11:31:33.996Z,87.62
2016-05-24T11:32:33.982Z,87
2016-05-24T11:33:21.266Z,87.43
2016-05-24T11:34:21.347Z,87.38
2016-05-24T11:35:21.319Z,87.48
2016-05-24T11:36:47.026Z,88.05
2016-05-24T11:37:37.107Z,85.89
2016-05-24T11:38:50.064Z,84.55
2016-05-24T11:39:43.613Z,84.36
2016-05-24T11:41:50.118Z,84.84
2016-05-24T11:42:30.947Z,85.13
2016-05-24T11:43:34.012Z,83.98
2016-05-24T11:44:30.967Z,83.73
2016-05-24T11:45:43.800Z,80.58
2016-05-24T11:48:37.559Z,74.66
2016-05-24T11:52:45.695Z,73.35
2016-05-24T11:53:17.398Z,73.93
2016-05-24T11:54:17.433Z,76.04
2016-05-24T11:55:30.200Z,74.69
2016-05-24T11:56:48.768Z,76.48
2016-05-24T11:57:36.786Z,77.02
2016-05-24T11:59:45.651Z,78.45
2016-05-24T12:00:32.776Z,77.4
2016-05-24T12:02:42.471Z,76.54
2016-05-24T12:05:05.024Z,78.74
2016-05-24T12:06:36.342Z,76.82
2016-05-24T12:07:14.576Z,76.06
2016-05-24T12:08:14.501Z,76.25
2016-05-24T12:09:24.145Z,76.35
2016-05-24T12:10:24.179Z,77.02
2016-05-24T12:11:43.403Z,76.64
2016-05-24T12:12:24.403Z,76.67
2016-05-24T12:13:55.533Z,76.48
2016-05-24T12:14:39.504Z,76.35
2016-05-24T12:15:39.381Z,76.82
2016-05-24T12:16:39.556Z,76.64
2016-05-24T12:17:58.794Z,75.87
2016-05-24T12:18:39.812Z,77.63
2016-05-24T12:20:05.377Z,76.39
2016-05-24T12:21:08.535Z,76.39
2016-05-24T12:21:52.398Z,76.86
2016-05-24T12:22:55.494Z,77.73
2016-05-24T12:24:21.185Z,76.19
2016-05-24T12:25:30.874Z,75.04
2016-05-24T12:26:30.909Z,74.66
2016-05-24T12:27:43.695Z,75.81
2016-05-24T12:28:30.945Z,75.71
2016-05-24T12:29:56.513Z,75.14
2016-05-24T12:30:47.016Z,74.76
2016-05-24T12:31:40.269Z,75.62
2016-05-24T12:32:59.693Z,76
2016-05-24T12:33:40.477Z,75.14
2016-05-24T12:35:06.152Z,74.89
2016-05-24T12:35:40.374Z,75.81
2016-05-24T12:37:55.863Z,76.67
2016-05-24T12:38:55.803Z,76.48
2016-05-24T12:39:55.837Z,76.39
2016-05-24T12:40:55.856Z,77.59
2016-05-24T12:41:55.889Z,78.36
2016-05-24T12:43:03.595Z,78.36
2016-05-24T12:43:59.034Z,78.55
2016-05-24T12:45:15.334Z,79.32
2016-05-24T12:45:56.651Z,79.51
2016-05-24T12:48:11.358Z,82.06
2016-05-24T12:49:11.439Z,82.06
2016-05-24T12:50:11.458Z,80.33
2016-05-24T12:51:11.492Z,80.33
2016-05-24T12:52:24.073Z,78.74
2016-05-24T12:53:24.372Z,79.6
2016-05-24T12:55:34.065Z,79.75
2016-05-24T12:56:21.380Z,80.24
2016-05-24T12:57:24.524Z,79.28
2016-05-24T12:58:24.541Z,79.75
2016-05-24T12:59:24.560Z,79.22
2016-05-24T13:00:37.344Z,79.13
2016-05-24T13:01:24.596Z,78.74
2016-05-24T13:03:34.336Z,76.92
2016-05-24T13:04:53.607Z,76.54
2016-05-24T13:05:50.188Z,75.96
2016-05-24T13:06:50.207Z,76.29
2016-05-24T13:07:50.209Z,75.43
2016-05-24T13:09:02.977Z,76.19
2016-05-24T13:09:53.292Z,75.62
2016-05-24T13:11:09.483Z,76.67
2016-05-24T13:11:50.251Z,76.29
2016-05-24T13:13:15.942Z,76.39
2016-05-24T13:14:12.570Z,76.29
2016-05-24T13:15:19.087Z,77.82
2016-05-24T13:16:25.465Z,77.06
2016-05-24T13:17:59.955Z,78.17
2016-05-24T13:19:00.067Z,79.03
2016-05-24T13:20:13.757Z,79.6
2016-05-24T13:21:12.931Z,78.84
2016-05-24T13:22:15.825Z,79.08
2016-05-24T13:23:12.999Z,80.52
2016-05-24T13:24:27.111Z,80.71
2016-05-24T13:25:32.224Z,82.59
2016-05-24T13:26:13.054Z,83.93
2016-05-24T13:27:44.373Z,83.11